Time;durP1;ratioP1;P1;durP2;ratioP2;P2;SDS_P1;SDS_P2;PMS_P1;PMS_P2;Temp;Humidity;BMP_temperature;BMP_pressure;BME280_temperature;BME280_humidity;BME280_pressure;Samples;Min_cycle;Max_cycle;Signal;HPM_P1;HPM_P2
2022/09/21 00:08:19;;;;;;;1.13;0.50;;;;;;;;;;20911337;28;20692;-75
2022/09/21 00:18:21;;;;;;;0.90;0.60;;;13.00;99.90;;;;;;20867457;28;20237;-76
2022/09/21 00:28:23;;;;;;;1.50;0.70;;;;;;;;;;20874769;28;20267;-76
2022/09/21 00:38:24;;;;;;;1.03;0.67;;;;;;;;;;20884472;28;20210;-75
2022/09/21 00:48:27;;;;;;;1.07;0.60;;;;;;;;;;20882174;28;20292;-75
2022/09/21 00:58:32;;;;;;;0.83;0.67;;;12.50;99.90;;;;;;20866570;28;20221;-75
2022/09/21 01:08:36;;;;;;;1.23;0.60;;;;;;;;;;20885455;28;20206;-75
2022/09/21 01:19:11;;;;;;;1.20;0.90;;;12.50;99.90;;;;;;20894778;28;20214;-76
2022/09/21 01:29:34;;;;;;;1.00;0.80;;;;;;;;;;20842759;28;20625;-76
2022/09/21 01:39:36;;;;;;;2.50;0.70;;;;;;;;;;20898042;28;20206;-76
2022/09/21 01:49:44;;;;;;;2.03;0.90;;;12.20;99.90;;;;;;20912024;28;20260;-75
2022/09/21 01:59:46;;;;;;;1.17;0.50;;;;;;;;;;20895438;28;20248;-75
2022/09/21 02:09:48;;;;;;;1.33;0.60;;;;;;;;;;20912819;28;20271;-75
2022/09/21 02:20:02;;;;;;;1.27;0.70;;;12.00;99.90;;;;;;20893613;28;20214;-75
2022/09/21 02:30:13;;;;;;;1.27;0.60;;;;;;;;;;20896913;28;20626;-75
2022/09/21 02:40:37;;;;;;;2.37;0.60;;;11.90;99.90;;;;;;20902449;28;20263;-76
2022/09/21 02:50:46;;;;;;;1.07;0.70;;;11.80;99.90;;;;;;20899232;28;20355;-76
2022/09/21 03:00:48;;;;;;;2.03;0.70;;;;;;;;;;20862258;28;20217;-75
2022/09/21 03:10:49;;;;;;;0.87;0.60;;;;;;;;;;20861067;28;20252;-75
2022/09/21 03:20:51;;;;;;;0.80;0.67;;;;;;;;;;20880769;28;20210;-75
2022/09/21 03:30:52;;;;;;;1.40;0.63;;;;;;;;;;20903573;28;20279;-75
2022/09/21 03:40:56;;;;;;;1.03;0.80;;;;;;;;;;20893399;28;20218;-75
2022/09/21 03:50:58;;;;;;;0.77;0.67;;;;;;;;;;20865308;28;20596;-75
2022/09/21 04:01:03;;;;;;;0.93;0.57;;;11.50;99.90;;;;;;20903818;28;20193;-75
2022/09/21 04:11:16;;;;;;;1.33;0.80;;;11.30;99.90;;;;;;20902734;28;20658;-76
2022/09/21 04:21:20;;;;;;;1.40;0.83;;;;;;;;;;20885888;28;20205;-75
2022/09/21 04:31:23;;;;;;;3.43;1.13;;;11.20;99.90;;;;;;20885748;28;20218;-75
2022/09/21 04:41:25;;;;;;;2.03;0.60;;;;;;;;;;20884209;28;20613;-75
2022/09/21 04:51:27;;;;;;;1.70;0.70;;;;;;;;;;20881993;28;20238;-75
2022/09/21 05:01:29;;;;;;;0.90;0.60;;;;;;;;;;20899207;28;20222;-75
2022/09/21 05:11:30;;;;;;;1.07;0.63;;;;;;;;;;20883564;28;20271;-75
2022/09/21 05:21:35;;;;;;;0.70;0.53;;;;;;;;;;20875886;28;20230;-76
2022/09/21 05:31:43;;;;;;;1.83;0.70;;;;;;;;;;20841254;28;20291;-75
2022/09/21 05:41:44;;;;;;;1.90;1.23;;;;;;;;;;20895731;28;20684;-74
2022/09/21 05:52:13;;;;;;;1.30;0.90;;;;;;;;;;20880329;28;20234;-74
2022/09/21 06:02:36;;;;;;;1.00;0.80;;;;;;;;;;20882652;28;20217;-74
2022/09/21 06:12:38;;;;;;;1.40;0.90;;;;;;;;;;20912777;28;20213;-74
2022/09/21 06:22:39;;;;;;;1.60;1.10;;;;;;;;;;20894062;28;20248;-75
2022/09/21 06:32:41;;;;;;;3.20;1.30;;;;;;;;;;20907506;28;20674;-76
2022/09/21 06:42:43;;;;;;;1.73;1.20;;;;;;;;;;20868420;28;20272;-75
2022/09/21 06:52:45;;;;;;;1.83;1.10;;;;;;;;;;20903330;28;20325;-76
2022/09/21 07:02:48;;;;;;;1.90;1.20;;;;;;;;;;20962619;22;20245;-71
2022/09/21 07:12:51;;;;;;;2.03;1.23;;;;;;;;;;20956752;28;20703;-71
2022/09/21 07:22:53;;;;;;;2.33;1.50;;;;;;;;;;20958013;28;20201;-71
2022/09/21 07:32:54;;;;;;;3.13;1.43;;;;;;;;;;20951952;28;20629;-71
2022/09/21 07:43:03;;;;;;;2.73;1.43;;;;;;;;;;20869015;28;20582;-71
2022/09/21 07:53:04;;;;;;;5.30;1.80;;;;;;;;;;20889215;28;20835;-71
2022/09/21 08:03:06;;;;;;;5.70;1.93;;;;;;;;;;20903776;28;20232;-71
2022/09/21 08:13:09;;;;;;;3.63;2.07;;;;;;;;;;20939468;28;20291;-71
2022/09/21 08:23:11;;;;;;;4.43;2.20;;;;;;;;;;20903854;28;20217;-71
2022/09/21 08:33:13;;;;;;;3.53;2.13;;;;;;;;;;20946251;28;20278;-71
2022/09/21 08:43:39;;;;;;;3.33;1.77;;;13.90;99.90;;;;;;20982937;28;20217;-71
2022/09/21 08:53:45;;;;;;;2.40;1.90;;;13.80;99.90;;;;;;20953851;28;20316;-71
2022/09/21 09:03:47;;;;;;;4.53;1.93;;;;;;;;;;20952404;28;20274;-70
2022/09/21 09:14:40;;;;;;;3.50;2.00;;;14.40;99.90;;;;;;20967918;28;20256;-71
2022/09/21 09:24:50;;;;;;;2.37;1.87;;;14.50;99.90;;;;;;20908116;28;20220;-71
2022/09/21 09:34:57;;;;;;;4.00;2.37;;;;;;;;;;20956899;28;20217;-71
2022/09/21 09:45:11;;;;;;;3.50;2.10;;;;;;;;;;20982465;28;20598;-71
2022/09/21 09:55:13;;;;;;;2.80;1.80;;;;;;;;;;20964312;28;20228;-71
2022/09/21 10:05:24;;;;;;;2.00;1.63;;;;;;;;;;20963485;28;20216;-71
2022/09/21 10:15:26;;;;;;;1.80;1.40;;;;;;;;;;20944928;28;20243;-71
2022/09/21 10:25:29;;;;;;;2.07;1.40;;;15.60;99.90;;;;;;20995489;28;20225;-71
2022/09/21 10:35:47;;;;;;;2.23;1.07;;;15.70;99.90;;;;;;20962388;28;20221;-71
2022/09/21 10:45:54;;;;;;;2.03;1.40;;;;;;;;;;20977852;28;20703;-72
2022/09/21 10:56:06;;;;;;;1.90;1.30;;;;;;;;;;20961156;28;20221;-72
2022/09/21 11:06:18;;;;;;;2.83;1.20;;;16.40;99.90;;;;;;20960915;28;20218;-73
2022/09/21 11:16:40;;;;;;;5.63;1.20;;;;;;;;;;20959311;28;20221;-71
2022/09/21 11:27:04;;;;;;;1.27;0.83;;;;;;;;;;20938154;28;20247;-71
2022/09/21 11:37:18;;;;;;;3.37;1.20;;;;;;;;;;20940689;28;20274;-71
2022/09/21 11:47:39;;;;;;;2.00;0.97;;;;;;;;;;20880033;28;20244;-72
2022/09/21 11:57:51;;;;;;;1.73;0.80;;;17.00;99.90;;;;;;20869477;28;20226;-71
2022/09/21 12:08:20;;;;;;;0.80;0.63;;;17.60;99.90;;;;;;20869884;28;20284;-72
2022/09/21 12:18:22;;;;;;;1.30;0.70;;;;;;;;;;20869194;28;20225;-71
2022/09/21 12:28:27;;;;;;;1.00;0.60;;;;;;;;;;20883267;28;20209;-72
2022/09/21 12:38:32;;;;;;;1.57;0.77;;;;;;;;;;20903765;28;20282;-71
2022/09/21 12:48:39;;;;;;;0.80;0.43;;;;;;;;;;20891279;28;20283;-71
2022/09/21 12:58:47;;;;;;;1.30;0.70;;;17.70;99.90;;;;;;20903286;28;20233;-71
2022/09/21 13:08:50;;;;;;;2.40;0.80;;;;;;;;;;20979383;28;20217;-73
2022/09/21 13:18:58;;;;;;;0.90;0.40;;;;;;;;;;20960452;28;20585;-70
2022/09/21 13:29:05;;;;;;;0.67;0.37;;;17.60;99.90;;;;;;20961336;28;20208;-71
2022/09/21 13:39:17;;;;;;;1.50;1.00;;;;;;;;;;20963380;28;20217;-70
2022/09/21 13:49:25;;;;;;;0.40;0.30;;;;;;;;;;20941864;28;20274;-70
2022/09/21 13:59:27;;;;;;;0.77;0.50;;;;;;;;;;20958373;28;20225;-70
2022/09/21 14:09:32;;;;;;;0.30;0.30;;;;;;;;;;20979168;28;20201;-70
2022/09/21 14:19:34;;;;;;;0.20;0.20;;;;;;;;;;20991674;28;20233;-70
2022/09/21 14:30:01;;;;;;;1.03;0.30;;;18.40;99.90;;;;;;20969647;28;20366;-71
2022/09/21 14:40:17;;;;;;;0.80;0.40;;;;;;;;;;20947454;28;20267;-71
2022/09/21 14:50:19;;;;;;;0.40;0.40;;;;;;;;;;20989790;28;20623;-70
2022/09/21 15:00:25;;;;;;;0.23;0.23;;;;;;;;;;20965895;28;20241;-71
2022/09/21 15:21:00;;;;;;;0.30;0.30;;;17.50;99.90;;;;;;20934002;28;20217;-71
2022/09/21 15:31:02;;;;;;;1.00;0.40;;;;;;;;;;20946254;28;20243;-71
2022/09/21 15:41:18;;;;;;;0.40;0.20;;;;;;;;;;20934781;28;20240;-71
2022/09/21 15:51:27;;;;;;;0.80;0.53;;;;;;;;;;20897079;28;20290;-71
2022/09/21 16:01:30;;;;;;;0.53;0.30;;;;;;;;;;20964349;28;20228;-71
2022/09/21 16:11:36;;;;;;;1.43;0.50;;;16.70;99.90;;;;;;20967580;28;20629;-71
2022/09/21 16:21:38;;;;;;;0.50;0.40;;;;;;;;;;20939808;28;20287;-72
2022/09/21 16:31:41;;;;;;;1.40;0.23;;;;;;;;;;20949135;28;20703;-71
2022/09/21 16:41:49;;;;;;;0.30;0.30;;;16.60;99.90;;;;;;20935026;28;20267;-71
2022/09/21 16:51:54;;;;;;;0.37;0.30;;;;;;;;;;20938931;28;20318;-71
2022/09/21 17:01:57;;;;;;;0.30;0.27;;;;;;;;;;20926315;28;20255;-71
2022/09/21 17:12:00;;;;;;;0.27;0.27;;;;;;;;;;20934259;28;20221;-71
2022/09/21 17:22:04;;;;;;;0.30;0.30;;;;;;;;;;20964285;28;20225;-71
2022/09/21 17:32:09;;;;;;;0.50;0.40;;;;;;;;;;20945193;28;20209;-71
2022/09/21 17:42:19;;;;;;;0.80;0.60;;;;;;;;;;20964441;28;20577;-71
2022/09/21 18:02:43;;;;;;;2.27;0.87;;;;;;;;;;20975351;28;20237;-71
2022/09/21 18:12:49;;;;;;;1.30;0.40;;;;;;;;;;20914998;28;20212;-71
2022/09/21 18:23:09;;;;;;;1.50;0.67;;;;;;;;;;20966589;28;20266;-71
2022/09/21 18:33:24;;;;;;;1.17;0.60;;;;;;;;;;20953892;28;20708;-71
2022/09/21 18:43:45;;;;;;;0.73;0.50;;;;;;;;;;20999200;28;20201;-71
2022/09/21 18:53:51;;;;;;;1.87;0.80;;;;;;;;;;20973285;28;20939;-71
2022/09/21 19:03:53;;;;;;;1.77;0.60;;;15.10;99.90;;;;;;20956812;28;20248;-71
2022/09/21 19:14:00;;;;;;;0.73;0.30;;;;;;;;;;20916628;28;20691;-71
2022/09/21 19:24:06;;;;;;;1.33;0.50;;;15.10;99.90;;;;;;20960469;28;20243;-71
2022/09/21 19:34:15;;;;;;;0.73;0.50;;;15.00;99.90;;;;;;20887586;28;20213;-71
2022/09/21 19:44:30;;;;;;;0.90;0.60;;;14.80;99.90;;;;;;20870803;28;20245;-71
2022/09/21 20:04:57;;;;;;;2.97;2.20;;;;;;;;;;20976426;28;20213;-75
2022/09/21 20:15:28;;;;;;;3.77;1.10;;;14.40;99.90;;;;;;20966976;28;20205;-75
2022/09/21 20:25:30;;;;;;;1.10;0.60;;;;;;;;;;20980295;28;20294;-74
2022/09/21 20:35:33;;;;;;;1.13;0.60;;;14.40;99.90;;;;;;20931725;28;20283;-75
2022/09/21 20:45:35;;;;;;;1.60;1.00;;;;;;;;;;20897931;28;20206;-75
2022/09/21 20:55:37;;;;;;;0.73;0.60;;;;;;;;;;20961745;28;20221;-75
2022/09/21 21:05:39;;;;;;;1.77;0.67;;;;;;;;;;20978270;28;20243;-75
2022/09/21 21:15:41;;;;;;;0.67;0.50;;;;;;;;;;20981404;28;20255;-75
2022/09/21 21:25:44;;;;;;;2.10;0.87;;;;;;;;;;20986263;28;20263;-76
2022/09/21 21:35:48;;;;;;;0.70;0.50;;;;;;;;;;20995953;28;20266;-75
2022/09/21 21:45:53;;;;;;;0.60;0.50;;;;;;;;;;20997860;28;20270;-75
2022/09/21 21:56:13;;;;;;;0.80;0.50;;;13.60;99.90;;;;;;20995464;28;20290;-75
2022/09/21 22:06:15;;;;;;;0.53;0.50;;;;;;;;;;20996002;28;20209;-75
2022/09/21 22:16:18;;;;;;;0.83;0.50;;;13.40;99.90;;;;;;20977286;28;20237;-76
2022/09/21 22:26:21;;;;;;;1.30;0.97;;;;;;;;;;20995515;28;20282;-75
2022/09/21 22:36:26;;;;;;;1.10;0.60;;;13.40;99.90;;;;;;21007617;28;20236;-75
2022/09/21 22:46:29;;;;;;;0.63;0.57;;;13.20;99.90;;;;;;20996335;28;20319;-76
2022/09/21 22:56:32;;;;;;;0.80;0.60;;;;;;;;;;20992290;28;20232;-75
2022/09/21 23:06:35;;;;;;;1.60;0.87;;;;;;;;;;20992583;28;20274;-75
2022/09/21 23:16:38;;;;;;;0.90;0.70;;;;;;;;;;20991211;28;20781;-75
2022/09/21 23:26:40;;;;;;;1.73;0.80;;;;;;;;;;21001813;28;20664;-76
2022/09/21 23:36:42;;;;;;;1.10;0.70;;;12.90;99.90;;;;;;20985025;28;20217;-76
2022/09/21 23:46:44;;;;;;;0.80;0.53;;;;;;;;;;20988620;28;20209;-75
2022/09/21 23:56:46;;;;;;;0.70;0.50;;;;;;;;;;20988089;28;20239;-76
